createdAt,value
2019-05-19T00:00:11.877Z,5.90
2019-05-19T00:02:40.932Z,4.33
2019-05-19T00:05:09.365Z,4.80
2019-05-19T00:07:37.729Z,9.13
2019-05-19T00:10:06.205Z,4.77
2019-05-19T00:12:34.362Z,6.30
2019-05-19T00:15:02.516Z,6.10
2019-05-19T00:17:30.616Z,9.53
2019-05-19T00:19:58.689Z,4.93
2019-05-19T00:22:26.778Z,4.40
2019-05-19T00:24:54.872Z,5.50
2019-05-19T00:27:22.962Z,4.70
2019-05-19T00:29:51.046Z,6.37
2019-05-19T00:32:19.273Z,9.20
2019-05-19T00:34:47.364Z,5.37
2019-05-19T00:37:15.470Z,4.23
2019-05-19T00:39:43.863Z,4.33
2019-05-19T00:42:11.943Z,9.80
2019-05-19T00:44:40.098Z,4.33
2019-05-19T00:47:08.498Z,4.37
2019-05-19T00:49:41.410Z,7.60
2019-05-19T00:52:08.046Z,5.40
2019-05-19T00:54:36.189Z,4.50
2019-05-19T00:57:04.346Z,8.73
2019-05-19T00:59:33.468Z,4.13
2019-05-19T01:02:01.863Z,4.10
2019-05-19T01:04:29.953Z,8.50
2019-05-19T01:06:58.321Z,5.23
2019-05-19T01:09:26.489Z,8.30
2019-05-19T01:11:54.865Z,4.23
2019-05-19T01:14:22.953Z,4.83
2019-05-19T01:16:51.433Z,5.10
2019-05-19T01:19:19.824Z,5.77
2019-05-19T01:21:48.513Z,4.33
2019-05-19T01:24:17.735Z,5.27
2019-05-19T01:26:45.813Z,5.00
2019-05-19T01:29:14.191Z,3.37
2019-05-19T01:31:42.298Z,7.60
2019-05-19T01:34:10.723Z,6.13
2019-05-19T01:36:38.806Z,3.90
2019-05-19T01:39:07.200Z,9.10
2019-05-19T01:41:35.300Z,5.37
2019-05-19T01:44:03.771Z,3.97
2019-05-19T01:46:31.930Z,11.60
2019-05-19T01:49:00.084Z,5.53
2019-05-19T01:51:28.306Z,5.37
2019-05-19T01:53:56.463Z,6.27
2019-05-19T01:56:24.971Z,4.60
2019-05-19T01:58:53.171Z,5.33
2019-05-19T02:01:21.637Z,6.30
2019-05-19T02:03:50.094Z,4.87
2019-05-19T02:06:18.262Z,8.30
2019-05-19T02:08:46.410Z,8.13
2019-05-19T02:11:14.560Z,5.37
2019-05-19T02:13:43.015Z,5.60
2019-05-19T02:16:11.171Z,8.03
2019-05-19T02:18:45.371Z,6.50
2019-05-19T02:21:13.824Z,4.73
2019-05-19T02:23:41.983Z,5.13
2019-05-19T02:26:10.478Z,5.60
2019-05-19T02:28:38.618Z,7.43
2019-05-19T02:31:07.038Z,6.00
2019-05-19T02:33:36.052Z,4.53
2019-05-19T02:36:04.340Z,4.97
2019-05-19T02:38:32.803Z,6.00
2019-05-19T02:41:02.480Z,5.50
2019-05-19T02:43:31.031Z,7.13
2019-05-19T02:46:00.611Z,6.00
2019-05-19T02:48:29.335Z,6.00
2019-05-19T02:50:58.044Z,4.70
2019-05-19T02:53:26.672Z,5.60
2019-05-19T02:55:55.374Z,4.00
2019-05-19T02:58:23.871Z,5.30
2019-05-19T03:00:52.327Z,8.50
2019-05-19T03:03:20.479Z,5.27
2019-05-19T03:05:48.607Z,4.87
2019-05-19T03:08:16.755Z,7.17
2019-05-19T03:10:44.898Z,6.00
2019-05-19T03:13:13.040Z,11.03
2019-05-19T03:15:41.512Z,5.33
2019-05-19T03:18:09.658Z,6.37
2019-05-19T03:20:37.803Z,6.33
2019-05-19T03:23:05.959Z,6.00
2019-05-19T03:25:34.107Z,6.10
2019-05-19T03:28:02.234Z,6.63
2019-05-19T03:30:48.482Z,6.80
2019-05-19T03:33:18.265Z,7.87
2019-05-19T03:35:46.407Z,7.97
2019-05-19T03:38:14.565Z,6.60
2019-05-19T03:40:43.060Z,6.47
2019-05-19T03:43:11.513Z,6.57
2019-05-19T03:45:39.670Z,5.90
2019-05-19T03:48:08.089Z,7.50
2019-05-19T03:50:36.571Z,7.20
2019-05-19T03:53:04.982Z,7.33
2019-05-19T03:55:33.133Z,10.10
2019-05-19T03:58:01.298Z,7.07
2019-05-19T04:00:29.814Z,7.23
2019-05-19T04:02:57.970Z,8.47
2019-05-19T04:05:26.137Z,6.90
2019-05-19T04:07:54.545Z,8.70
2019-05-19T04:10:22.776Z,6.43
2019-05-19T04:12:51.225Z,8.50
2019-05-19T04:15:19.435Z,6.50
2019-05-19T04:17:47.579Z,7.03
2019-05-19T04:20:15.802Z,6.33
2019-05-19T04:22:43.944Z,7.97
2019-05-19T04:25:12.104Z,7.87
2019-05-19T04:27:40.245Z,6.60
2019-05-19T04:30:08.758Z,6.60
2019-05-19T04:32:37.255Z,8.03
2019-05-19T04:35:05.917Z,7.47
2019-05-19T04:37:34.438Z,6.63
2019-05-19T04:40:02.858Z,6.70
2019-05-19T04:42:31.299Z,7.73
2019-05-19T04:44:59.452Z,6.90
2019-05-19T04:47:27.882Z,6.50
2019-05-19T04:49:56.353Z,6.20
2019-05-19T04:52:24.501Z,7.60
2019-05-19T04:54:52.641Z,10.07
2019-05-19T04:57:20.778Z,6.30
2019-05-19T04:59:48.944Z,5.87
2019-05-19T05:02:17.094Z,6.17
2019-05-19T05:04:45.254Z,6.63
2019-05-19T05:07:13.385Z,7.17
2019-05-19T05:09:42.110Z,5.70
2019-05-19T05:12:10.567Z,6.30
2019-05-19T05:14:38.759Z,6.57
2019-05-19T05:17:06.903Z,8.23
2019-05-19T05:19:35.058Z,6.53
2019-05-19T05:22:03.214Z,8.70
2019-05-19T05:24:31.426Z,8.67
2019-05-19T05:26:59.592Z,6.70
2019-05-19T05:29:27.773Z,8.07
2019-05-19T05:31:55.942Z,6.80
2019-05-19T05:34:24.369Z,7.27
2019-05-19T05:36:52.870Z,6.73
2019-05-19T05:39:21.069Z,6.47
2019-05-19T05:41:49.278Z,6.70
2019-05-19T05:44:17.719Z,6.67
2019-05-19T05:46:46.242Z,7.37
2019-05-19T05:49:14.386Z,7.07
2019-05-19T05:51:42.527Z,6.70
2019-05-19T05:54:10.711Z,9.57
2019-05-19T05:56:39.195Z,6.87
2019-05-19T05:59:07.586Z,7.17
2019-05-19T06:01:36.110Z,6.80
2019-05-19T06:04:04.249Z,9.13
2019-05-19T06:06:32.389Z,7.53
2019-05-19T06:09:00.538Z,10.03
2019-05-19T06:11:29.114Z,8.10
2019-05-19T06:13:57.245Z,6.80
2019-05-19T06:16:25.390Z,6.83
2019-05-19T06:18:56.698Z,6.77
2019-05-19T06:21:23.693Z,8.50
2019-05-19T06:23:51.831Z,7.03
2019-05-19T06:26:19.965Z,7.00
2019-05-19T06:28:48.106Z,7.07
2019-05-19T06:31:16.579Z,6.90
2019-05-19T06:33:44.702Z,6.33
2019-05-19T06:36:13.248Z,7.40
2019-05-19T06:38:41.411Z,7.30
2019-05-19T06:41:09.905Z,9.20
2019-05-19T06:43:38.025Z,7.40
2019-05-19T06:46:07.716Z,7.37
2019-05-19T06:48:36.170Z,7.40
2019-05-19T06:51:04.331Z,8.23
2019-05-19T06:53:32.482Z,8.23
2019-05-19T06:56:00.606Z,7.70
2019-05-19T06:58:28.757Z,9.53
2019-05-19T07:00:59.156Z,10.07
2019-05-19T07:03:26.823Z,8.43
2019-05-19T07:05:54.980Z,8.70
2019-05-19T07:08:23.455Z,7.03
2019-05-19T07:10:51.940Z,7.60
2019-05-19T07:13:20.421Z,8.50
2019-05-19T07:15:48.556Z,8.40
2019-05-19T07:18:16.702Z,9.33
2019-05-19T07:20:44.826Z,7.93
2019-05-19T07:23:25.974Z,8.13
2019-05-19T07:25:43.354Z,7.10
2019-05-19T07:28:11.745Z,8.30
2019-05-19T07:30:39.847Z,8.33
2019-05-19T07:33:07.996Z,5.27
2019-05-19T07:35:36.117Z,7.13
2019-05-19T07:38:07.288Z,6.30
2019-05-19T07:40:34.467Z,6.93
2019-05-19T07:43:02.967Z,5.30
2019-05-19T07:45:31.086Z,6.73
2019-05-19T07:47:59.229Z,7.90
2019-05-19T07:50:27.399Z,5.70
2019-05-19T07:52:55.578Z,8.60
2019-05-19T07:55:24.061Z,5.33
2019-05-19T07:57:52.582Z,5.27
2019-05-19T08:00:21.038Z,5.37
2019-05-19T08:02:49.186Z,5.30
2019-05-19T08:05:17.686Z,6.60
2019-05-19T08:07:46.331Z,6.43
2019-05-19T08:10:14.672Z,6.93
2019-05-19T08:12:42.823Z,5.10
2019-05-19T08:15:10.967Z,5.20
2019-05-19T08:17:39.114Z,5.07
2019-05-19T08:20:07.301Z,5.67
2019-05-19T08:22:35.433Z,6.00
2019-05-19T08:25:04.549Z,5.50
2019-05-19T08:27:32.701Z,5.43
2019-05-19T08:30:00.822Z,5.03
2019-05-19T08:32:28.966Z,6.07
2019-05-19T08:34:57.095Z,4.90
2019-05-19T08:37:25.293Z,4.73
2019-05-19T08:39:53.424Z,5.20
2019-05-19T08:42:21.913Z,5.40
2019-05-19T08:44:50.046Z,4.90
2019-05-19T08:47:18.201Z,5.37
2019-05-19T08:49:46.342Z,4.30
2019-05-19T08:52:14.531Z,4.63
2019-05-19T08:54:43.006Z,4.33
2019-05-19T08:57:11.487Z,4.90
2019-05-19T08:59:39.704Z,5.03
2019-05-19T09:02:08.159Z,4.87
2019-05-19T09:04:36.282Z,4.40
2019-05-19T09:07:04.422Z,4.93
2019-05-19T09:09:32.565Z,4.57
2019-05-19T09:12:00.703Z,5.30
2019-05-19T09:14:28.829Z,4.50
2019-05-19T09:16:57.354Z,4.50
2019-05-19T09:19:25.611Z,4.73
2019-05-19T09:21:54.095Z,3.63
2019-05-19T09:24:30.164Z,2.93
2019-05-19T09:26:52.403Z,4.17
2019-05-19T09:29:20.882Z,4.40
2019-05-19T09:31:49.022Z,4.60
2019-05-19T09:34:17.157Z,4.43
2019-05-19T09:36:45.327Z,3.80
2019-05-19T09:39:13.456Z,4.20
2019-05-19T09:41:41.870Z,4.87
2019-05-19T09:44:10.005Z,4.47
2019-05-19T09:46:38.437Z,3.67
2019-05-19T09:49:24.826Z,4.23
2019-05-19T09:51:53.045Z,3.30
2019-05-19T09:54:21.166Z,3.10
2019-05-19T09:56:49.674Z,4.60
2019-05-19T09:59:17.802Z,3.43
2019-05-19T10:01:46.243Z,3.23
2019-05-19T10:04:14.723Z,3.20
2019-05-19T10:06:42.885Z,3.03
2019-05-19T10:09:11.151Z,2.80
2019-05-19T10:11:43.818Z,2.73
2019-05-19T10:14:11.951Z,2.50
2019-05-19T10:16:40.114Z,3.57
2019-05-19T10:19:08.651Z,3.00
2019-05-19T10:21:36.778Z,2.97
2019-05-19T10:24:05.267Z,2.77
2019-05-19T10:26:33.763Z,2.70
2019-05-19T10:29:01.907Z,2.60
2019-05-19T10:31:30.027Z,3.60
2019-05-19T10:33:58.147Z,2.23
2019-05-19T10:36:26.278Z,2.33
2019-05-19T10:38:54.771Z,1.47
2019-05-19T10:41:23.334Z,2.60
2019-05-19T10:43:53.193Z,2.60
2019-05-19T10:46:21.389Z,2.57
2019-05-19T10:48:49.571Z,2.60
2019-05-19T10:51:17.727Z,2.30
2019-05-19T10:53:45.872Z,1.80
2019-05-19T10:56:14.035Z,2.37
2019-05-19T10:58:42.190Z,2.80
2019-05-19T11:01:10.331Z,2.53
2019-05-19T11:03:38.490Z,4.37
2019-05-19T11:06:06.637Z,3.40
2019-05-19T11:08:35.151Z,2.60
2019-05-19T11:11:03.308Z,2.23
2019-05-19T11:13:31.508Z,2.60
2019-05-19T11:16:00.003Z,2.77
2019-05-19T11:18:28.146Z,4.63
2019-05-19T11:20:56.290Z,2.40
2019-05-19T11:23:24.733Z,2.50
2019-05-19T11:25:52.873Z,4.40
2019-05-19T11:28:21.024Z,2.67
2019-05-19T11:30:49.199Z,2.73
2019-05-19T11:33:17.343Z,2.40
2019-05-19T11:35:45.511Z,2.27
2019-05-19T11:38:13.650Z,2.63
2019-05-19T11:40:41.782Z,2.50
2019-05-19T11:43:09.931Z,2.50
2019-05-19T11:45:38.078Z,3.67
2019-05-19T11:48:06.513Z,3.73
2019-05-19T11:50:34.638Z,4.03
2019-05-19T11:53:02.778Z,3.23
2019-05-19T11:55:30.909Z,2.70
2019-05-19T11:57:59.058Z,4.50
2019-05-19T12:00:27.183Z,2.03
2019-05-19T12:02:55.326Z,2.50
2019-05-19T12:05:23.799Z,1.93
2019-05-19T12:07:51.977Z,6.43
2019-05-19T12:10:20.441Z,2.77
2019-05-19T12:12:48.569Z,2.93
2019-05-19T12:15:17.076Z,2.33
2019-05-19T12:17:45.219Z,2.60
2019-05-19T12:20:13.655Z,3.93
2019-05-19T12:22:42.560Z,2.63
2019-05-19T12:25:10.958Z,2.37
2019-05-19T12:27:39.095Z,2.27
2019-05-19T12:30:07.610Z,2.30
2019-05-19T12:32:35.812Z,2.43
2019-05-19T12:35:05.902Z,2.70
2019-05-19T12:37:34.039Z,3.97
2019-05-19T12:40:02.185Z,2.70
2019-05-19T12:42:30.338Z,1.90
2019-05-19T12:44:58.705Z,2.30
2019-05-19T12:47:26.889Z,3.17
2019-05-19T12:49:55.025Z,3.07
2019-05-19T12:52:23.162Z,6.93
2019-05-19T12:54:51.300Z,3.20
2019-05-19T12:57:21.271Z,2.53
2019-05-19T12:59:49.810Z,6.83
2019-05-19T13:02:17.951Z,5.63
2019-05-19T13:05:03.577Z,2.97
2019-05-19T13:07:16.522Z,3.10
2019-05-19T13:09:44.659Z,4.53
2019-05-19T13:12:12.803Z,2.93
2019-05-19T13:14:41.266Z,2.90
2019-05-19T13:17:09.470Z,3.43
2019-05-19T13:19:37.637Z,2.57
2019-05-19T13:22:05.766Z,3.00
2019-05-19T13:24:33.900Z,4.47
2019-05-19T13:27:02.083Z,3.83
2019-05-19T13:29:30.536Z,3.17
2019-05-19T13:31:58.666Z,2.67
2019-05-19T13:34:27.203Z,4.50
2019-05-19T13:36:55.353Z,3.30
2019-05-19T13:39:23.493Z,2.73
2019-05-19T13:41:51.944Z,2.90
2019-05-19T13:44:20.130Z,1.80
2019-05-19T13:46:48.254Z,2.73
2019-05-19T13:49:16.382Z,2.67
2019-05-19T13:51:44.863Z,2.13
2019-05-19T13:54:12.988Z,3.00
2019-05-19T13:56:41.129Z,2.30
2019-05-19T13:59:09.240Z,2.53
2019-05-19T14:01:37.386Z,2.83
2019-05-19T14:04:05.513Z,3.57
2019-05-19T14:06:33.942Z,8.70
2019-05-19T14:09:02.258Z,5.40
2019-05-19T14:11:30.798Z,6.33
2019-05-19T14:13:58.930Z,6.73
2019-05-19T14:16:27.351Z,5.27
2019-05-19T14:18:55.856Z,4.03
2019-05-19T14:21:24.180Z,3.70
2019-05-19T14:23:52.720Z,5.03
2019-05-19T14:26:20.853Z,5.03
2019-05-19T14:28:48.977Z,4.30
2019-05-19T14:31:17.116Z,5.30
2019-05-19T14:33:45.243Z,3.80
2019-05-19T14:36:13.382Z,3.87
2019-05-19T14:38:43.162Z,4.30
2019-05-19T14:41:11.309Z,4.70
2019-05-19T14:43:39.424Z,6.13
2019-05-19T14:46:07.566Z,5.40
2019-05-19T14:48:35.704Z,9.17
2019-05-19T14:51:04.205Z,2.20
2019-05-19T14:53:32.597Z,3.13
2019-05-19T14:56:00.755Z,3.03
2019-05-19T14:58:29.166Z,1.70
2019-05-19T15:00:57.304Z,1.53
2019-05-19T15:03:25.457Z,2.43
2019-05-19T15:05:53.847Z,1.53
2019-05-19T15:08:21.977Z,1.27
2019-05-19T15:10:50.106Z,1.50
2019-05-19T15:13:18.250Z,1.40
2019-05-19T15:15:46.380Z,1.63
2019-05-19T15:18:14.497Z,1.60
2019-05-19T15:20:42.986Z,3.97
2019-05-19T15:23:11.113Z,1.60
2019-05-19T15:25:39.250Z,2.27
2019-05-19T15:28:07.720Z,2.13
2019-05-19T15:30:35.839Z,2.07
2019-05-19T15:33:04.276Z,3.13
2019-05-19T15:35:32.416Z,4.20
2019-05-19T15:38:00.537Z,1.60
2019-05-19T15:40:28.668Z,1.70
2019-05-19T15:43:01.711Z,2.07
2019-05-19T15:45:31.579Z,5.13
2019-05-19T15:47:59.781Z,1.40
2019-05-19T15:50:31.385Z,2.10
2019-05-19T15:52:59.583Z,1.73
2019-05-19T15:55:28.009Z,1.30
2019-05-19T15:57:56.331Z,2.23
2019-05-19T16:00:24.894Z,2.70
2019-05-19T16:02:53.079Z,3.20
2019-05-19T16:05:21.228Z,3.50
2019-05-19T16:07:49.370Z,5.60
2019-05-19T16:10:17.511Z,2.13
2019-05-19T16:12:45.629Z,2.83
2019-05-19T16:15:14.159Z,2.00
2019-05-19T16:17:42.513Z,2.20
2019-05-19T16:20:10.736Z,4.80
2019-05-19T16:22:38.948Z,2.00
2019-05-19T16:25:07.232Z,2.80
2019-05-19T16:27:36.787Z,1.93
2019-05-19T16:30:05.901Z,1.90
2019-05-19T16:32:34.075Z,3.30
2019-05-19T16:35:02.558Z,1.70
2019-05-19T16:37:30.767Z,3.00
2019-05-19T16:39:59.158Z,3.10
2019-05-19T16:42:27.329Z,1.87
2019-05-19T16:44:55.791Z,2.47
2019-05-19T16:47:24.906Z,3.93
2019-05-19T16:49:53.057Z,1.63
2019-05-19T16:52:21.234Z,4.60
2019-05-19T16:54:53.959Z,1.40
2019-05-19T16:57:22.233Z,3.70
2019-05-19T16:59:50.439Z,5.97
2019-05-19T17:02:18.594Z,2.90
2019-05-19T17:04:46.752Z,1.77
2019-05-19T17:07:15.240Z,1.30
2019-05-19T17:09:43.391Z,1.53
2019-05-19T17:12:11.543Z,3.13
2019-05-19T17:14:39.679Z,1.63
2019-05-19T17:17:07.837Z,1.67
2019-05-19T17:19:35.977Z,1.87
2019-05-19T17:22:04.159Z,1.90
2019-05-19T17:24:32.557Z,4.50
2019-05-19T17:27:00.782Z,2.23
2019-05-19T17:29:29.016Z,2.03
2019-05-19T17:32:05.659Z,2.30
2019-05-19T17:34:27.409Z,2.60
2019-05-19T17:36:55.544Z,2.10
2019-05-19T17:39:23.736Z,1.70
2019-05-19T17:41:51.859Z,1.67
2019-05-19T17:44:20.021Z,1.30
2019-05-19T17:46:48.161Z,2.07
2019-05-19T17:49:16.331Z,1.30
2019-05-19T17:51:44.477Z,2.70
2019-05-19T17:54:12.972Z,1.87
2019-05-19T17:56:41.182Z,3.13
2019-05-19T17:59:16.580Z,1.30
2019-05-19T18:01:39.228Z,5.43
2019-05-19T18:04:07.436Z,1.90
2019-05-19T18:06:35.623Z,1.30
2019-05-19T18:09:04.638Z,1.47
2019-05-19T18:11:33.087Z,1.40
2019-05-19T18:14:01.250Z,3.07
2019-05-19T18:16:29.701Z,1.67
2019-05-19T18:18:58.005Z,1.40
2019-05-19T18:21:26.151Z,2.10
2019-05-19T18:23:54.308Z,1.23
2019-05-19T18:26:22.702Z,1.33
2019-05-19T18:28:50.842Z,1.77
2019-05-19T18:31:19.007Z,1.10
2019-05-19T18:33:47.507Z,1.43
2019-05-19T18:36:15.899Z,1.20
2019-05-19T18:38:44.070Z,1.10
2019-05-19T18:41:12.450Z,3.73
2019-05-19T18:43:40.590Z,1.40
2019-05-19T18:46:08.729Z,2.00
2019-05-19T18:48:37.846Z,1.27
2019-05-19T18:51:06.302Z,1.23
2019-05-19T18:53:34.478Z,1.10
2019-05-19T18:56:02.966Z,2.60
2019-05-19T18:58:31.108Z,1.70
2019-05-19T19:00:59.722Z,3.17
2019-05-19T19:03:28.139Z,3.03
2019-05-19T19:05:56.283Z,1.90
2019-05-19T19:08:24.447Z,1.20
2019-05-19T19:10:52.651Z,1.80
2019-05-19T19:13:40.144Z,1.10
2019-05-19T19:16:08.291Z,1.30
2019-05-19T19:18:36.440Z,1.30
2019-05-19T19:21:04.589Z,1.23
2019-05-19T19:23:32.709Z,3.27
2019-05-19T19:26:00.855Z,1.40
2019-05-19T19:28:29.343Z,1.20
2019-05-19T19:30:57.487Z,1.67
2019-05-19T19:33:25.863Z,2.87
2019-05-19T19:35:53.995Z,1.10
2019-05-19T19:38:22.466Z,1.20
2019-05-19T19:40:53.942Z,2.70
2019-05-19T19:43:20.790Z,1.10
2019-05-19T19:45:48.942Z,2.20
2019-05-19T19:48:17.409Z,1.80
2019-05-19T19:50:45.546Z,5.70
2019-05-19T19:53:13.673Z,2.77
2019-05-19T19:55:41.819Z,13.70
2019-05-19T19:58:09.947Z,2.80
2019-05-19T20:00:38.927Z,3.10
2019-05-19T20:03:07.432Z,2.57
2019-05-19T20:05:35.582Z,8.47
2019-05-19T20:08:04.678Z,8.23
2019-05-19T20:10:32.766Z,4.97
2019-05-19T20:13:01.153Z,3.80
2019-05-19T20:15:29.246Z,5.23
2019-05-19T20:17:57.313Z,3.00
2019-05-19T20:20:25.673Z,3.33
2019-05-19T20:22:53.743Z,2.87
2019-05-19T20:25:22.134Z,2.93
2019-05-19T20:27:50.531Z,4.77
2019-05-19T20:30:33.854Z,5.10
2019-05-19T20:32:48.612Z,11.87
2019-05-19T20:35:16.707Z,8.43
2019-05-19T20:37:44.774Z,6.00
2019-05-19T20:40:13.049Z,4.60
2019-05-19T20:42:41.125Z,4.70
2019-05-19T20:45:09.383Z,4.07
2019-05-19T20:47:37.518Z,4.60
2019-05-19T20:50:06.601Z,5.50
2019-05-19T20:52:34.991Z,6.13
2019-05-19T20:55:03.470Z,11.53
2019-05-19T20:57:31.537Z,6.07
2019-05-19T20:59:59.930Z,12.43
2019-05-19T21:02:28.020Z,5.73
2019-05-19T21:04:56.103Z,6.80
2019-05-19T21:07:24.200Z,7.60
2019-05-19T21:09:52.265Z,7.17
2019-05-19T21:12:20.728Z,5.73
2019-05-19T21:14:48.821Z,7.53
2019-05-19T21:17:17.181Z,6.77
2019-05-19T21:19:45.578Z,5.90
2019-05-19T21:22:13.946Z,12.90
2019-05-19T21:24:42.353Z,10.53
2019-05-19T21:27:10.422Z,7.07
2019-05-19T21:29:38.778Z,7.50
2019-05-19T21:32:07.166Z,11.53
2019-05-19T21:34:35.544Z,31.50
2019-05-19T21:37:03.934Z,6.73
2019-05-19T21:39:32.323Z,6.60
2019-05-19T21:42:00.414Z,6.83
2019-05-19T21:44:28.496Z,10.30
2019-05-19T21:46:56.587Z,6.73
2019-05-19T21:49:24.908Z,7.33
2019-05-19T21:51:53.018Z,9.40
2019-05-19T21:54:21.093Z,10.03
2019-05-19T21:56:49.475Z,12.23
2019-05-19T21:59:17.586Z,11.67
2019-05-19T22:01:45.864Z,6.03
2019-05-19T22:04:13.944Z,6.17
2019-05-19T22:06:44.029Z,7.23
2019-05-19T22:09:12.107Z,8.60
2019-05-19T22:11:40.486Z,9.70
2019-05-19T22:14:08.871Z,9.33
2019-05-19T22:16:36.945Z,7.67
2019-05-19T22:19:05.036Z,10.83
2019-05-19T22:21:33.123Z,8.83
2019-05-19T22:24:01.470Z,13.00
2019-05-19T22:26:29.554Z,13.27
2019-05-19T22:28:57.930Z,8.10
2019-05-19T22:31:36.496Z,10.93
2019-05-19T22:33:55.830Z,11.03
2019-05-19T22:36:24.193Z,11.30
2019-05-19T22:38:52.296Z,7.53
2019-05-19T22:41:20.382Z,10.10
2019-05-19T22:43:48.465Z,8.67
2019-05-19T22:46:16.533Z,8.53
2019-05-19T22:48:44.617Z,7.57
2019-05-19T22:51:12.689Z,8.93
2019-05-19T22:53:41.151Z,9.63
2019-05-19T22:56:09.567Z,10.13
2019-05-19T22:58:37.723Z,6.90
2019-05-19T23:01:05.852Z,10.27
2019-05-19T23:03:33.965Z,8.50
2019-05-19T23:06:02.043Z,8.17
2019-05-19T23:08:30.136Z,10.67
2019-05-19T23:10:58.514Z,10.00
2019-05-19T23:13:26.885Z,11.00
2019-05-19T23:15:54.979Z,8.30
2019-05-19T23:18:23.081Z,14.03
2019-05-19T23:20:51.159Z,10.50
2019-05-19T23:23:19.253Z,8.13
2019-05-19T23:25:47.346Z,11.20
2019-05-19T23:28:15.430Z,9.80
2019-05-19T23:30:43.831Z,9.60
2019-05-19T23:33:12.219Z,10.67
2019-05-19T23:35:40.299Z,12.13
2019-05-19T23:38:08.666Z,17.37
2019-05-19T23:40:37.057Z,8.57
2019-05-19T23:43:05.204Z,10.70
2019-05-19T23:45:33.612Z,13.00
2019-05-19T23:48:01.687Z,10.00
2019-05-19T23:50:29.783Z,15.20
2019-05-19T23:52:57.866Z,8.00
2019-05-19T23:55:25.950Z,7.67
2019-05-19T23:57:54.312Z,11.70
